createdAt,value
2022-08-31T00:01:32.365Z,14.93
2022-08-31T00:04:03.410Z,11.27
2022-08-31T00:06:33.288Z,15.02
2022-08-31T00:09:01.912Z,9.68
2022-08-31T00:11:31.632Z,9.33
2022-08-31T00:14:03.070Z,11.90
2022-08-31T00:16:33.948Z,8.02
2022-08-31T00:19:03.649Z,12.60
2022-08-31T00:21:31.793Z,13.30
2022-08-31T00:24:00.578Z,11.25
2022-08-31T00:26:30.300Z,11.75
2022-08-31T00:29:01.393Z,10.80
2022-08-31T00:31:31.089Z,11.13
2022-08-31T00:33:59.189Z,16.05
2022-08-31T00:36:28.274Z,9.65
2022-08-31T00:38:57.045Z,13.25
2022-08-31T00:41:27.068Z,11.32
2022-08-31T00:43:57.433Z,10.48
2022-08-31T00:46:29.279Z,8.52
2022-08-31T00:49:02.864Z,9.02
2022-08-31T00:51:33.500Z,12.27
2022-08-31T00:54:02.167Z,12.98
2022-08-31T00:56:31.375Z,10.20
2022-08-31T00:59:01.031Z,10.18
2022-08-31T01:01:30.926Z,10.20
2022-08-31T01:04:00.408Z,9.98
2022-08-31T01:06:29.213Z,9.80
2022-08-31T01:08:59.864Z,10.60
2022-08-31T01:11:29.112Z,13.20
2022-08-31T01:13:57.732Z,15.73
2022-08-31T01:16:31.037Z,11.47
2022-08-31T01:19:05.463Z,11.00
2022-08-31T01:21:42.269Z,14.35
2022-08-31T01:24:13.810Z,10.90
2022-08-31T01:26:41.984Z,11.70
2022-08-31T01:29:10.334Z,11.48
2022-08-31T01:31:41.182Z,12.75
2022-08-31T01:34:09.302Z,12.55
2022-08-31T01:36:39.215Z,11.85
2022-08-31T01:39:09.680Z,14.63
2022-08-31T01:41:43.953Z,10.65
2022-08-31T01:44:12.791Z,11.13
2022-08-31T01:46:40.871Z,13.45
2022-08-31T01:49:08.983Z,10.70
2022-08-31T01:51:38.445Z,12.95
2022-08-31T01:54:07.167Z,11.77
2022-08-31T01:56:37.497Z,12.30
2022-08-31T01:59:08.661Z,10.55
2022-08-31T02:01:39.520Z,14.10
2022-08-31T02:04:09.453Z,11.35
2022-08-31T02:06:38.389Z,12.25
2022-08-31T02:09:08.507Z,10.93
2022-08-31T02:11:36.921Z,10.65
2022-08-31T02:14:07.416Z,14.48
2022-08-31T02:16:36.038Z,14.32
2022-08-31T02:19:04.905Z,12.87
2022-08-31T02:21:33.064Z,11.07
2022-08-31T02:24:06.563Z,10.93
2022-08-31T02:29:03.059Z,8.63
2022-08-31T02:31:32.669Z,9.37
2022-08-31T02:34:00.869Z,11.25
2022-08-31T02:36:29.021Z,9.15
2022-08-31T02:38:58.016Z,11.00
2022-08-31T02:41:26.324Z,10.63
2022-08-31T02:43:54.694Z,10.07
2022-08-31T02:46:22.860Z,9.10
2022-08-31T02:48:52.365Z,11.98
2022-08-31T02:51:20.411Z,10.57
2022-08-31T02:53:48.514Z,12.93
2022-08-31T02:56:16.592Z,12.70
2022-08-31T02:58:44.585Z,12.43
2022-08-31T03:01:12.844Z,11.00
2022-08-31T03:03:46.470Z,11.70
2022-08-31T03:06:18.652Z,10.23
2022-08-31T03:08:47.161Z,13.80
2022-08-31T03:11:15.686Z,13.32
2022-08-31T03:13:43.988Z,14.07
2022-08-31T03:16:14.943Z,11.68
2022-08-31T03:18:43.415Z,15.32
2022-08-31T03:21:11.562Z,11.63
2022-08-31T03:23:41.381Z,14.40
2022-08-31T03:26:09.763Z,12.88
2022-08-31T03:28:40.587Z,10.85
2022-08-31T03:31:10.442Z,11.85
2022-08-31T03:33:39.013Z,13.45
2022-08-31T03:36:08.170Z,14.48
2022-08-31T03:38:36.204Z,15.27
2022-08-31T03:41:07.121Z,11.75
2022-08-31T03:43:35.332Z,14.13
2022-08-31T03:46:04.434Z,13.23
2022-08-31T03:48:39.908Z,11.68
2022-08-31T03:51:08.371Z,9.45
2022-08-31T03:53:37.091Z,11.15
2022-08-31T03:56:09.278Z,10.82
2022-08-31T03:58:38.831Z,10.50
2022-08-31T04:03:36.503Z,11.27
2022-08-31T04:08:36.245Z,11.98
2022-08-31T04:11:10.845Z,9.40
2022-08-31T04:13:39.669Z,10.15
2022-08-31T04:16:13.015Z,10.02
2022-08-31T04:18:41.700Z,11.30
2022-08-31T04:21:13.518Z,13.03
2022-08-31T04:23:41.586Z,12.07
2022-08-31T04:26:16.935Z,10.43
2022-08-31T04:28:45.007Z,13.00
2022-08-31T04:31:13.101Z,12.50
2022-08-31T04:33:43.336Z,13.82
2022-08-31T04:36:13.898Z,11.90
2022-08-31T04:38:43.680Z,13.02
2022-08-31T04:41:15.273Z,14.00
2022-08-31T04:43:46.342Z,10.48
2022-08-31T04:46:14.634Z,10.75
2022-08-31T04:48:43.189Z,13.38
2022-08-31T04:51:13.813Z,15.10
2022-08-31T04:53:42.409Z,12.93
2022-08-31T04:56:15.221Z,11.30
2022-08-31T04:58:44.873Z,13.00
2022-08-31T05:01:13.603Z,11.43
2022-08-31T05:03:42.387Z,12.43
2022-08-31T05:06:14.607Z,13.93
2022-08-31T05:08:43.014Z,11.82
2022-08-31T05:11:13.300Z,16.50
2022-08-31T05:13:41.628Z,13.02
2022-08-31T05:16:11.472Z,11.35
2022-08-31T05:18:40.782Z,12.80
2022-08-31T05:21:12.285Z,12.50
2022-08-31T05:23:41.251Z,13.95
2022-08-31T05:26:09.671Z,11.05
2022-08-31T05:28:39.084Z,12.40
2022-08-31T05:31:07.874Z,16.65
2022-08-31T05:33:36.031Z,10.05
2022-08-31T05:36:04.976Z,14.00
2022-08-31T05:38:34.043Z,15.50
2022-08-31T05:41:05.622Z,9.75
2022-08-31T05:43:34.908Z,12.07
2022-08-31T05:46:10.295Z,13.90
2022-08-31T05:48:39.260Z,15.27
2022-08-31T05:51:11.512Z,11.95
2022-08-31T05:53:41.956Z,10.52
2022-08-31T05:56:12.448Z,12.75
2022-08-31T05:58:46.118Z,11.13
2022-08-31T06:01:17.856Z,11.70
2022-08-31T06:03:46.051Z,10.63
2022-08-31T06:06:14.829Z,11.93
2022-08-31T06:08:43.775Z,10.85
2022-08-31T06:11:16.515Z,13.52
2022-08-31T06:13:44.867Z,9.50
2022-08-31T06:16:14.173Z,11.98
2022-08-31T06:18:50.717Z,13.73
2022-08-31T06:21:21.979Z,11.75
2022-08-31T06:23:51.780Z,14.10
2022-08-31T06:26:21.708Z,12.52
2022-08-31T06:28:52.340Z,12.98
2022-08-31T06:31:24.042Z,13.55
2022-08-31T06:33:55.854Z,14.18
2022-08-31T06:36:26.367Z,10.20
2022-08-31T06:38:59.067Z,10.70
2022-08-31T06:41:32.188Z,9.80
2022-08-31T06:44:05.789Z,17.13
2022-08-31T06:46:34.999Z,11.70
2022-08-31T06:49:04.469Z,14.00
2022-08-31T06:51:36.536Z,10.20
2022-08-31T06:54:27.531Z,20.33
2022-08-31T06:56:53.076Z,11.80
2022-08-31T06:59:22.569Z,10.77
2022-08-31T07:01:52.444Z,13.07
2022-08-31T07:04:21.989Z,10.70
2022-08-31T07:09:18.503Z,11.30
2022-08-31T07:11:48.966Z,9.43
2022-08-31T07:14:21.880Z,12.50
2022-08-31T07:16:50.391Z,10.18
2022-08-31T07:19:18.853Z,7.23
2022-08-31T07:21:50.236Z,10.38
2022-08-31T07:24:24.250Z,9.10
2022-08-31T07:26:54.545Z,8.30
2022-08-31T07:29:24.085Z,13.45
2022-08-31T07:31:52.389Z,7.32
2022-08-31T07:34:25.774Z,6.78
2022-08-31T07:37:14.357Z,7.88
2022-08-31T07:40:06.863Z,8.43
2022-08-31T07:42:38.670Z,6.63
2022-08-31T07:45:13.146Z,6.07
2022-08-31T07:47:45.268Z,7.00
2022-08-31T07:50:14.486Z,5.93
2022-08-31T07:52:47.442Z,5.60
2022-08-31T07:55:17.773Z,5.60
2022-08-31T07:57:46.204Z,5.28
2022-08-31T08:00:20.891Z,6.57
2022-08-31T08:02:53.895Z,4.95
2022-08-31T08:05:27.495Z,5.22
2022-08-31T08:08:09.391Z,6.47
2022-08-31T08:10:41.872Z,6.63
2022-08-31T08:13:12.506Z,7.03
2022-08-31T08:15:40.867Z,5.38
2022-08-31T08:18:10.830Z,5.10
2022-08-31T08:20:39.902Z,5.32
2022-08-31T08:23:14.943Z,4.95
2022-08-31T08:25:45.061Z,4.60
2022-08-31T08:28:38.225Z,6.35
2022-08-31T08:31:06.619Z,5.28
2022-08-31T08:36:07.690Z,4.73
2022-08-31T08:38:39.976Z,6.75
2022-08-31T08:41:13.040Z,6.25
2022-08-31T08:43:44.117Z,4.13
2022-08-31T08:46:33.885Z,5.43
2022-08-31T08:49:15.666Z,6.82
2022-08-31T08:51:45.768Z,5.47
2022-08-31T08:54:22.401Z,5.78
2022-08-31T08:56:50.475Z,4.32
2022-08-31T08:59:20.350Z,3.92
2022-08-31T09:01:52.945Z,7.75
2022-08-31T09:04:39.708Z,4.55
2022-08-31T09:07:30.846Z,3.90
2022-08-31T09:10:08.273Z,5.25
2022-08-31T09:12:49.000Z,7.43
2022-08-31T09:15:39.997Z,4.38
2022-08-31T09:18:24.836Z,4.80
2022-08-31T09:21:04.589Z,5.40
2022-08-31T09:23:38.303Z,5.00
2022-08-31T09:26:10.084Z,6.18
2022-08-31T09:28:48.085Z,5.20
2022-08-31T09:31:34.654Z,4.32
2022-08-31T09:34:03.688Z,5.68
2022-08-31T09:36:39.259Z,5.30
2022-08-31T09:39:22.792Z,4.50
2022-08-31T09:41:52.844Z,4.00
2022-08-31T09:44:35.020Z,4.97
2022-08-31T09:47:05.955Z,5.57
2022-08-31T09:49:36.780Z,4.70
2022-08-31T09:52:21.633Z,5.50
2022-08-31T09:55:13.557Z,6.55
2022-08-31T09:57:54.321Z,5.10
2022-08-31T10:00:34.346Z,5.40
2022-08-31T10:03:16.038Z,4.90
2022-08-31T10:05:44.526Z,5.72
2022-08-31T10:08:28.076Z,4.23
2022-08-31T10:10:58.485Z,4.55
2022-08-31T10:13:36.312Z,4.97
2022-08-31T10:16:14.567Z,6.00
2022-08-31T10:18:50.639Z,5.23
2022-08-31T10:21:26.501Z,4.47
2022-08-31T10:24:20.367Z,7.15
2022-08-31T10:26:54.132Z,5.60
2022-08-31T10:29:32.549Z,4.82
2022-08-31T10:32:10.628Z,6.70
2022-08-31T10:34:59.950Z,5.18
2022-08-31T10:40:07.102Z,5.78
2022-08-31T10:42:38.829Z,5.40
2022-08-31T10:45:18.676Z,5.38
2022-08-31T10:47:50.089Z,4.88
2022-08-31T10:50:25.118Z,5.28
2022-08-31T10:53:07.516Z,4.05
2022-08-31T10:55:41.528Z,4.80
2022-08-31T10:58:20.770Z,6.13
2022-08-31T11:00:54.822Z,10.13
2022-08-31T11:03:43.415Z,5.72
2022-08-31T11:06:17.991Z,6.85
2022-08-31T11:08:56.064Z,4.50
2022-08-31T11:11:42.313Z,6.07
2022-08-31T11:14:45.173Z,8.10
2022-08-31T11:17:28.005Z,5.55
2022-08-31T11:20:19.849Z,7.57
2022-08-31T11:23:19.397Z,6.18
2022-08-31T11:26:31.853Z,4.75
2022-08-31T11:29:10.399Z,5.05
2022-08-31T11:31:40.387Z,5.05
2022-08-31T11:34:17.054Z,5.55
2022-08-31T11:36:51.046Z,5.20
2022-08-31T11:39:37.286Z,5.03
2022-08-31T11:42:12.376Z,7.93
2022-08-31T11:45:02.605Z,5.60
2022-08-31T11:47:43.335Z,4.65
2022-08-31T11:50:56.333Z,5.93
2022-08-31T11:53:37.872Z,5.60
2022-08-31T11:56:07.018Z,6.28
2022-08-31T11:58:39.793Z,5.15
2022-08-31T12:01:30.693Z,6.68
2022-08-31T12:04:03.295Z,5.00
2022-08-31T12:07:08.540Z,6.35
2022-08-31T12:10:19.027Z,6.65
2022-08-31T12:13:18.493Z,4.40
2022-08-31T12:16:08.418Z,6.22
2022-08-31T12:18:59.010Z,6.68
2022-08-31T12:21:52.325Z,6.60
2022-08-31T12:24:32.949Z,5.50
2022-08-31T12:27:18.101Z,5.97
2022-08-31T12:29:46.509Z,4.95
2022-08-31T12:32:22.612Z,5.85
2022-08-31T12:35:00.760Z,6.93
2022-08-31T12:37:32.749Z,4.57
2022-08-31T12:40:12.679Z,4.70
2022-08-31T12:42:53.158Z,4.72
2022-08-31T12:45:26.497Z,4.60
2022-08-31T12:48:05.931Z,4.80
2022-08-31T12:50:40.220Z,4.35
2022-08-31T12:53:39.851Z,4.57
2022-08-31T12:56:15.251Z,4.85
2022-08-31T12:59:01.996Z,7.13
2022-08-31T13:01:30.356Z,6.13
2022-08-31T13:04:02.625Z,6.28
2022-08-31T13:06:32.864Z,7.05
2022-08-31T13:09:02.109Z,5.32
2022-08-31T13:11:35.133Z,5.00
2022-08-31T13:14:13.712Z,6.40
2022-08-31T13:16:44.629Z,5.05
2022-08-31T13:19:19.204Z,6.28
2022-08-31T13:21:52.392Z,8.20
2022-08-31T13:24:28.965Z,7.10
2022-08-31T13:27:13.795Z,5.95
2022-08-31T13:29:44.981Z,6.00
2022-08-31T13:32:15.428Z,9.02
2022-08-31T13:34:43.538Z,6.22
2022-08-31T13:37:18.722Z,6.85
2022-08-31T13:39:47.992Z,6.00
2022-08-31T13:42:28.405Z,8.80
2022-08-31T13:45:01.614Z,6.03
2022-08-31T13:47:45.848Z,6.25
2022-08-31T13:50:25.907Z,7.80
2022-08-31T13:55:48.720Z,5.88
2022-08-31T13:58:27.752Z,6.43
2022-08-31T14:01:24.954Z,6.82
2022-08-31T14:03:57.166Z,8.15
2022-08-31T14:06:27.861Z,7.43
2022-08-31T14:09:03.138Z,6.85
2022-08-31T14:11:32.169Z,8.68
2022-08-31T14:14:06.070Z,7.53
2022-08-31T14:16:38.869Z,6.95
2022-08-31T14:19:12.067Z,7.63
2022-08-31T14:21:43.417Z,7.57
2022-08-31T14:24:12.481Z,10.00
2022-08-31T14:26:42.532Z,6.80
2022-08-31T14:29:12.521Z,7.38
2022-08-31T14:31:48.520Z,8.35
2022-08-31T14:34:25.723Z,6.45
2022-08-31T14:36:57.693Z,11.02
2022-08-31T14:39:30.720Z,8.05
2022-08-31T14:42:01.221Z,8.50
2022-08-31T14:44:34.200Z,7.13
2022-08-31T14:47:03.706Z,7.40
2022-08-31T14:52:06.950Z,10.38
2022-08-31T14:54:37.101Z,8.05
2022-08-31T14:57:11.513Z,7.93
2022-08-31T14:59:43.357Z,7.93
2022-08-31T15:02:21.620Z,8.60
2022-08-31T15:04:50.016Z,12.35
2022-08-31T15:07:19.358Z,10.25
2022-08-31T15:09:50.307Z,10.18
2022-08-31T15:12:18.565Z,10.23
2022-08-31T15:14:47.276Z,10.98
2022-08-31T15:17:21.748Z,9.60
2022-08-31T15:19:55.107Z,12.32
2022-08-31T15:22:26.082Z,11.13
2022-08-31T15:24:55.049Z,11.60
2022-08-31T15:27:25.448Z,13.85
2022-08-31T15:29:58.907Z,9.98
2022-08-31T15:32:28.323Z,11.43
2022-08-31T15:37:28.069Z,10.73
2022-08-31T15:40:02.297Z,12.27
2022-08-31T15:42:36.660Z,10.35
2022-08-31T15:45:06.502Z,9.25
2022-08-31T15:47:56.168Z,10.15
2022-08-31T15:50:31.523Z,12.15
2022-08-31T15:53:06.567Z,10.55
2022-08-31T15:55:40.164Z,10.45
2022-08-31T15:58:09.254Z,9.98
2022-08-31T16:00:38.120Z,10.38
2022-08-31T16:03:07.511Z,11.38
2022-08-31T16:05:38.995Z,10.68
2022-08-31T16:08:10.579Z,10.32
2022-08-31T16:10:39.628Z,12.80
2022-08-31T16:13:09.329Z,11.77
2022-08-31T16:15:37.632Z,6.13
2022-08-31T16:18:08.848Z,12.73
2022-08-31T16:20:39.059Z,9.50
2022-08-31T16:23:07.692Z,8.02
2022-08-31T16:25:41.829Z,16.23
2022-08-31T16:28:17.694Z,13.60
2022-08-31T16:30:45.840Z,32.85
2022-08-31T16:33:15.317Z,9.65
2022-08-31T16:38:13.009Z,10.73
2022-08-31T16:40:42.252Z,8.68
2022-08-31T16:43:10.370Z,13.00
2022-08-31T16:45:39.379Z,18.98
2022-08-31T16:48:24.885Z,11.23
2022-08-31T16:51:02.610Z,9.73
2022-08-31T16:53:31.276Z,9.65
2022-08-31T16:55:59.885Z,11.07
2022-08-31T16:58:50.770Z,8.55
2022-08-31T17:01:21.885Z,8.40
2022-08-31T17:03:52.276Z,8.95
2022-08-31T17:06:21.638Z,7.10
2022-08-31T17:08:54.300Z,8.35
2022-08-31T17:11:24.778Z,7.85
2022-08-31T17:13:58.075Z,8.07
2022-08-31T17:16:27.968Z,8.52
2022-08-31T17:18:58.229Z,15.73
2022-08-31T17:21:29.947Z,9.07
2022-08-31T17:24:01.829Z,16.27
2022-08-31T17:26:33.665Z,9.60
2022-08-31T17:29:03.924Z,8.73
2022-08-31T17:31:34.499Z,9.32
2022-08-31T17:34:03.063Z,10.55
2022-08-31T17:36:37.239Z,9.07
2022-08-31T17:39:06.673Z,8.38
2022-08-31T17:41:35.499Z,11.32
2022-08-31T17:44:04.727Z,8.93
2022-08-31T17:46:33.294Z,9.75
2022-08-31T17:49:02.122Z,10.87
2022-08-31T17:51:36.033Z,14.00
2022-08-31T17:54:06.414Z,13.32
2022-08-31T17:56:47.701Z,9.82
2022-08-31T17:59:18.506Z,16.98
2022-08-31T18:01:48.547Z,14.27
2022-08-31T18:04:17.803Z,12.95
2022-08-31T18:06:47.456Z,14.65
2022-08-31T18:09:17.859Z,10.95
2022-08-31T18:11:46.292Z,9.00
2022-08-31T18:14:15.832Z,11.55
2022-08-31T18:19:12.969Z,11.70
2022-08-31T18:21:41.221Z,10.20
2022-08-31T18:24:12.790Z,12.82
2022-08-31T18:26:45.984Z,12.18
2022-08-31T18:29:19.598Z,9.88
2022-08-31T18:31:52.811Z,10.32
2022-08-31T18:34:23.996Z,12.75
2022-08-31T18:36:55.344Z,12.93
2022-08-31T18:39:50.154Z,12.63
2022-08-31T18:42:32.262Z,9.93
2022-08-31T18:45:19.774Z,13.15
2022-08-31T18:48:20.991Z,12.80
2022-08-31T18:50:44.263Z,13.38
2022-08-31T18:53:15.172Z,13.13
2022-08-31T18:55:45.522Z,12.93
2022-08-31T18:58:13.845Z,11.45
2022-08-31T19:00:41.962Z,12.70
2022-08-31T19:03:10.098Z,13.98
2022-08-31T19:05:41.731Z,11.13
2022-08-31T19:08:09.801Z,11.70
2022-08-31T19:10:40.721Z,11.90
2022-08-31T19:13:10.516Z,9.73
2022-08-31T19:15:39.818Z,9.88
2022-08-31T19:18:08.181Z,10.40
2022-08-31T19:20:36.375Z,10.73
2022-08-31T19:23:05.207Z,9.35
2022-08-31T19:25:33.249Z,11.52
2022-08-31T19:28:06.484Z,11.65
2022-08-31T19:30:37.528Z,13.15
2022-08-31T19:33:07.345Z,10.20
2022-08-31T19:35:36.498Z,12.93
2022-08-31T19:38:05.271Z,11.23
2022-08-31T19:40:38.495Z,12.47
2022-08-31T19:45:56.526Z,12.38
2022-08-31T19:48:45.991Z,13.52
2022-08-31T19:51:16.049Z,12.13
2022-08-31T19:53:45.300Z,10.82
2022-08-31T19:56:17.582Z,13.50
2022-08-31T19:58:48.268Z,11.00
2022-08-31T20:01:20.435Z,10.82
2022-08-31T20:03:49.205Z,9.88
2022-08-31T20:06:20.304Z,10.13
2022-08-31T20:08:50.924Z,9.15
2022-08-31T20:11:23.543Z,15.13
2022-08-31T20:13:52.059Z,10.43
2022-08-31T20:16:28.638Z,6.90
2022-08-31T20:19:04.076Z,7.10
2022-08-31T20:21:34.726Z,7.03
2022-08-31T20:24:05.859Z,8.80
2022-08-31T20:26:47.479Z,6.90
2022-08-31T20:29:21.312Z,8.05
2022-08-31T20:31:55.082Z,7.90
2022-08-31T20:34:27.901Z,6.60
2022-08-31T20:37:01.229Z,6.68
2022-08-31T20:39:32.361Z,6.82
2022-08-31T20:42:01.488Z,6.82
2022-08-31T20:44:31.348Z,9.93
2022-08-31T20:47:20.118Z,7.85
2022-08-31T20:49:53.556Z,6.65
2022-08-31T20:52:23.285Z,8.00
2022-08-31T20:55:01.409Z,7.10
2022-08-31T20:57:31.704Z,7.63
2022-08-31T21:00:00.915Z,6.38
2022-08-31T21:02:31.745Z,6.43
2022-08-31T21:05:20.786Z,7.90
2022-08-31T21:07:50.309Z,6.00
2022-08-31T21:10:26.064Z,7.38
2022-08-31T21:13:06.944Z,7.45
2022-08-31T21:15:35.016Z,12.85
2022-08-31T21:18:04.449Z,9.82
2022-08-31T21:20:35.165Z,6.93
2022-08-31T21:23:03.244Z,7.85
2022-08-31T21:25:31.448Z,7.15
2022-08-31T21:27:59.927Z,6.80
2022-08-31T21:30:29.352Z,7.13
2022-08-31T21:35:27.908Z,9.40
2022-08-31T21:37:57.713Z,7.47
2022-08-31T21:42:56.612Z,9.85
2022-08-31T21:45:25.242Z,7.60
2022-08-31T21:47:53.309Z,7.00
2022-08-31T21:50:21.397Z,8.20
2022-08-31T21:52:53.269Z,10.65
2022-08-31T21:55:22.496Z,7.32
2022-08-31T21:57:50.528Z,8.55
2022-08-31T22:00:29.058Z,7.82
2022-08-31T22:02:58.617Z,7.15
2022-08-31T22:05:31.589Z,10.32
2022-08-31T22:08:01.523Z,7.97
2022-08-31T22:10:29.947Z,7.85
2022-08-31T22:12:58.408Z,8.35
2022-08-31T22:15:28.045Z,7.70
2022-08-31T22:18:11.771Z,7.78
2022-08-31T22:20:45.400Z,7.55
2022-08-31T22:23:14.773Z,8.02
2022-08-31T22:25:43.716Z,7.75
2022-08-31T22:28:12.858Z,10.55
2022-08-31T22:30:41.047Z,8.43
2022-08-31T22:33:09.105Z,9.30
2022-08-31T22:35:40.006Z,8.85
2022-08-31T22:38:09.069Z,9.38
2022-08-31T22:40:39.880Z,9.32
2022-08-31T22:43:09.593Z,11.45
2022-08-31T22:45:48.165Z,7.97
2022-08-31T22:48:16.818Z,7.97
2022-08-31T22:50:44.885Z,7.07
2022-08-31T22:53:12.955Z,9.05
2022-08-31T22:55:43.029Z,8.63
2022-08-31T22:58:12.508Z,9.40
2022-08-31T23:03:11.428Z,9.57
2022-08-31T23:05:41.979Z,8.98
2022-08-31T23:08:11.301Z,8.85
2022-08-31T23:10:40.253Z,8.68
2022-08-31T23:13:11.232Z,10.95
2022-08-31T23:15:40.072Z,9.85
2022-08-31T23:18:10.498Z,8.85
2022-08-31T23:20:41.611Z,12.48
2022-08-31T23:23:10.027Z,9.95
2022-08-31T23:25:40.641Z,10.27
2022-08-31T23:28:10.013Z,10.35
2022-08-31T23:30:43.778Z,11.02
2022-08-31T23:33:11.868Z,11.65
2022-08-31T23:35:40.615Z,11.25
2022-08-31T23:38:08.665Z,9.82
2022-08-31T23:40:36.740Z,9.93
2022-08-31T23:43:07.934Z,10.23
2022-08-31T23:45:40.875Z,10.43
2022-08-31T23:48:09.388Z,12.25
2022-08-31T23:50:37.538Z,9.27
2022-08-31T23:53:13.573Z,13.85
2022-08-31T23:55:44.193Z,9.95
2022-08-31T23:58:14.013Z,10.23
